sensor_id;sensor_type;location;lat;lon;timestamp;P1;durP1;ratioP1;P2;durP2;ratioP2
73337;SDS011;61575;49.908;35.556;2022-09-02T00:01:10;8.07;;;2.55;;
73337;SDS011;61575;49.908;35.556;2022-09-02T00:04:18;6.00;;;2.78;;
73337;SDS011;61575;49.908;35.556;2022-09-02T00:07:23;5.57;;;2.80;;
73337;SDS011;61575;49.908;35.556;2022-09-02T00:10:25;5.40;;;2.80;;
73337;SDS011;61575;49.908;35.556;2022-09-02T00:13:27;6.82;;;3.00;;
73337;SDS011;61575;49.908;35.556;2022-09-02T00:16:30;5.32;;;2.90;;
73337;SDS011;61575;49.908;35.556;2022-09-02T00:19:34;5.35;;;2.85;;
73337;SDS011;61575;49.908;35.556;2022-09-02T00:22:36;6.45;;;3.10;;
73337;SDS011;61575;49.908;35.556;2022-09-02T00:25:39;6.00;;;2.95;;
73337;SDS011;61575;49.908;35.556;2022-09-02T00:28:41;7.20;;;2.88;;
73337;SDS011;61575;49.908;35.556;2022-09-02T00:31:52;7.35;;;3.20;;
73337;SDS011;61575;49.908;35.556;2022-09-02T00:34:55;7.35;;;3.67;;
73337;SDS011;61575;49.908;35.556;2022-09-02T00:37:58;8.23;;;3.25;;
73337;SDS011;61575;49.908;35.556;2022-09-02T00:41:03;8.27;;;3.55;;
73337;SDS011;61575;49.908;35.556;2022-09-02T00:44:09;8.80;;;3.60;;
73337;SDS011;61575;49.908;35.556;2022-09-02T00:47:13;6.22;;;3.15;;
73337;SDS011;61575;49.908;35.556;2022-09-02T00:53:19;9.20;;;3.53;;
73337;SDS011;61575;49.908;35.556;2022-09-02T00:56:23;6.45;;;3.38;;
73337;SDS011;61575;49.908;35.556;2022-09-02T01:02:47;7.20;;;3.40;;
73337;SDS011;61575;49.908;35.556;2022-09-02T01:05:53;8.48;;;3.13;;
73337;SDS011;61575;49.908;35.556;2022-09-02T01:09:01;6.07;;;3.25;;
73337;SDS011;61575;49.908;35.556;2022-09-02T01:12:09;8.50;;;3.25;;
73337;SDS011;61575;49.908;35.556;2022-09-02T01:15:13;7.90;;;3.05;;
73337;SDS011;61575;49.908;35.556;2022-09-02T01:21:21;7.93;;;3.20;;
73337;SDS011;61575;49.908;35.556;2022-09-02T01:27:28;8.07;;;3.30;;
73337;SDS011;61575;49.908;35.556;2022-09-02T01:30:31;5.40;;;3.10;;
73337;SDS011;61575;49.908;35.556;2022-09-02T01:33:34;6.55;;;3.15;;
73337;SDS011;61575;49.908;35.556;2022-09-02T01:36:37;6.37;;;3.13;;
73337;SDS011;61575;49.908;35.556;2022-09-02T01:39:41;6.03;;;3.00;;
73337;SDS011;61575;49.908;35.556;2022-09-02T01:42:44;6.65;;;3.22;;
73337;SDS011;61575;49.908;35.556;2022-09-02T01:45:48;5.57;;;2.92;;
73337;SDS011;61575;49.908;35.556;2022-09-02T01:48:55;9.35;;;3.50;;
73337;SDS011;61575;49.908;35.556;2022-09-02T01:51:57;7.87;;;3.17;;
73337;SDS011;61575;49.908;35.556;2022-09-02T01:54:59;8.77;;;3.63;;
73337;SDS011;61575;49.908;35.556;2022-09-02T01:58:02;8.90;;;3.38;;
73337;SDS011;61575;49.908;35.556;2022-09-02T02:01:05;6.07;;;3.35;;
73337;SDS011;61575;49.908;35.556;2022-09-02T02:04:10;6.25;;;3.08;;
73337;SDS011;61575;49.908;35.556;2022-09-02T02:07:17;7.93;;;3.53;;
73337;SDS011;61575;49.908;35.556;2022-09-02T02:10:21;6.60;;;3.55;;
73337;SDS011;61575;49.908;35.556;2022-09-02T02:13:23;8.35;;;3.40;;
73337;SDS011;61575;49.908;35.556;2022-09-02T02:16:26;6.05;;;2.88;;
73337;SDS011;61575;49.908;35.556;2022-09-02T02:19:28;7.80;;;2.88;;
73337;SDS011;61575;49.908;35.556;2022-09-02T02:22:32;6.85;;;3.63;;
73337;SDS011;61575;49.908;35.556;2022-09-02T02:25:34;8.50;;;3.55;;
73337;SDS011;61575;49.908;35.556;2022-09-02T02:28:36;6.30;;;3.33;;
73337;SDS011;61575;49.908;35.556;2022-09-02T02:31:39;10.07;;;3.78;;
73337;SDS011;61575;49.908;35.556;2022-09-02T02:34:44;6.88;;;3.50;;
73337;SDS011;61575;49.908;35.556;2022-09-02T02:37:48;8.90;;;3.33;;
73337;SDS011;61575;49.908;35.556;2022-09-02T02:40:55;7.35;;;3.00;;
73337;SDS011;61575;49.908;35.556;2022-09-02T02:43:59;7.20;;;3.22;;
73337;SDS011;61575;49.908;35.556;2022-09-02T02:47:01;8.07;;;3.25;;
73337;SDS011;61575;49.908;35.556;2022-09-02T02:50:05;5.70;;;3.15;;
73337;SDS011;61575;49.908;35.556;2022-09-02T02:53:10;5.97;;;2.92;;
73337;SDS011;61575;49.908;35.556;2022-09-02T02:56:15;6.18;;;3.13;;
73337;SDS011;61575;49.908;35.556;2022-09-02T02:59:17;6.65;;;3.33;;
73337;SDS011;61575;49.908;35.556;2022-09-02T03:02:20;35.83;;;4.55;;
73337;SDS011;61575;49.908;35.556;2022-09-02T03:05:22;30.27;;;4.53;;
73337;SDS011;61575;49.908;35.556;2022-09-02T03:11:28;12.65;;;3.60;;
73337;SDS011;61575;49.908;35.556;2022-09-02T03:14:30;9.68;;;3.83;;
73337;SDS011;61575;49.908;35.556;2022-09-02T03:20:35;7.50;;;3.30;;
73337;SDS011;61575;49.908;35.556;2022-09-02T03:23:41;8.55;;;3.22;;
73337;SDS011;61575;49.908;35.556;2022-09-02T03:26:44;10.50;;;3.38;;
73337;SDS011;61575;49.908;35.556;2022-09-02T03:29:46;6.97;;;3.17;;
73337;SDS011;61575;49.908;35.556;2022-09-02T03:32:48;7.82;;;3.00;;
73337;SDS011;61575;49.908;35.556;2022-09-02T03:38:53;12.07;;;3.47;;
73337;SDS011;61575;49.908;35.556;2022-09-02T03:41:56;8.05;;;3.38;;
73337;SDS011;61575;49.908;35.556;2022-09-02T03:45:00;9.68;;;3.90;;
73337;SDS011;61575;49.908;35.556;2022-09-02T03:48:02;7.72;;;3.25;;
73337;SDS011;61575;49.908;35.556;2022-09-02T03:51:09;6.55;;;3.15;;
73337;SDS011;61575;49.908;35.556;2022-09-02T03:54:12;6.97;;;2.83;;
73337;SDS011;61575;49.908;35.556;2022-09-02T03:57:15;6.65;;;3.17;;
73337;SDS011;61575;49.908;35.556;2022-09-02T04:00:18;5.68;;;3.05;;
73337;SDS011;61575;49.908;35.556;2022-09-02T04:03:24;9.15;;;3.60;;
73337;SDS011;61575;49.908;35.556;2022-09-02T04:06:27;6.38;;;3.00;;
73337;SDS011;61575;49.908;35.556;2022-09-02T04:09:34;7.05;;;2.72;;
73337;SDS011;61575;49.908;35.556;2022-09-02T04:12:37;5.97;;;3.17;;
73337;SDS011;61575;49.908;35.556;2022-09-02T04:15:41;6.32;;;2.60;;
73337;SDS011;61575;49.908;35.556;2022-09-02T04:18:45;9.57;;;2.70;;
73337;SDS011;61575;49.908;35.556;2022-09-02T04:21:47;8.00;;;3.10;;
73337;SDS011;61575;49.908;35.556;2022-09-02T04:24:50;6.47;;;2.78;;
73337;SDS011;61575;49.908;35.556;2022-09-02T04:27:53;5.70;;;2.40;;
73337;SDS011;61575;49.908;35.556;2022-09-02T04:33:58;4.50;;;2.10;;
73337;SDS011;61575;49.908;35.556;2022-09-02T04:37:01;5.18;;;2.47;;
73337;SDS011;61575;49.908;35.556;2022-09-02T04:40:03;5.55;;;2.03;;
73337;SDS011;61575;49.908;35.556;2022-09-02T04:46:10;6.50;;;2.53;;
73337;SDS011;61575;49.908;35.556;2022-09-02T04:49:17;5.38;;;1.95;;
73337;SDS011;61575;49.908;35.556;2022-09-02T04:52:20;6.57;;;1.98;;
73337;SDS011;61575;49.908;35.556;2022-09-02T04:55:22;4.57;;;1.73;;
73337;SDS011;61575;49.908;35.556;2022-09-02T04:58:26;4.97;;;1.95;;
73337;SDS011;61575;49.908;35.556;2022-09-02T05:01:30;4.03;;;1.83;;
73337;SDS011;61575;49.908;35.556;2022-09-02T05:04:39;7.03;;;2.03;;
73337;SDS011;61575;49.908;35.556;2022-09-02T05:07:52;4.15;;;1.90;;
73337;SDS011;61575;49.908;35.556;2022-09-02T05:10:57;4.57;;;1.83;;
73337;SDS011;61575;49.908;35.556;2022-09-02T05:14:01;4.80;;;2.03;;
73337;SDS011;61575;49.908;35.556;2022-09-02T05:17:07;6.47;;;2.25;;
73337;SDS011;61575;49.908;35.556;2022-09-02T05:20:13;5.00;;;2.40;;
73337;SDS011;61575;49.908;35.556;2022-09-02T05:23:18;4.68;;;2.30;;
73337;SDS011;61575;49.908;35.556;2022-09-02T05:26:20;5.60;;;2.10;;
73337;SDS011;61575;49.908;35.556;2022-09-02T05:29:23;5.88;;;2.28;;
73337;SDS011;61575;49.908;35.556;2022-09-02T05:32:26;5.07;;;1.90;;
73337;SDS011;61575;49.908;35.556;2022-09-02T05:35:30;4.65;;;1.70;;
73337;SDS011;61575;49.908;35.556;2022-09-02T05:38:35;6.07;;;2.47;;
73337;SDS011;61575;49.908;35.556;2022-09-02T05:41:37;3.75;;;1.88;;
73337;SDS011;61575;49.908;35.556;2022-09-02T05:44:41;4.10;;;1.77;;
73337;SDS011;61575;49.908;35.556;2022-09-02T05:47:51;5.93;;;1.52;;
73337;SDS011;61575;49.908;35.556;2022-09-02T05:50:53;6.40;;;2.63;;
73337;SDS011;61575;49.908;35.556;2022-09-02T05:54:00;4.97;;;1.80;;
73337;SDS011;61575;49.908;35.556;2022-09-02T05:57:04;4.32;;;1.60;;
73337;SDS011;61575;49.908;35.556;2022-09-02T06:00:12;4.75;;;1.92;;
73337;SDS011;61575;49.908;35.556;2022-09-02T06:03:29;7.18;;;2.00;;
73337;SDS011;61575;49.908;35.556;2022-09-02T06:06:32;4.75;;;1.92;;
73337;SDS011;61575;49.908;35.556;2022-09-02T06:09:34;4.82;;;1.65;;
73337;SDS011;61575;49.908;35.556;2022-09-02T06:12:38;16.58;;;2.28;;
73337;SDS011;61575;49.908;35.556;2022-09-02T06:15:44;5.13;;;1.50;;
73337;SDS011;61575;49.908;35.556;2022-09-02T06:18:48;4.80;;;1.30;;
73337;SDS011;61575;49.908;35.556;2022-09-02T06:21:51;10.85;;;1.60;;
73337;SDS011;61575;49.908;35.556;2022-09-02T06:24:57;6.65;;;1.30;;
73337;SDS011;61575;49.908;35.556;2022-09-02T06:28:01;2.78;;;1.40;;
73337;SDS011;61575;49.908;35.556;2022-09-02T06:31:12;4.47;;;1.40;;
73337;SDS011;61575;49.908;35.556;2022-09-02T06:34:20;4.70;;;1.52;;
73337;SDS011;61575;49.908;35.556;2022-09-02T06:37:24;3.72;;;1.60;;
73337;SDS011;61575;49.908;35.556;2022-09-02T06:40:28;3.45;;;1.40;;
73337;SDS011;61575;49.908;35.556;2022-09-02T06:46:54;5.90;;;1.50;;
73337;SDS011;61575;49.908;35.556;2022-09-02T06:49:59;4.35;;;1.40;;
73337;SDS011;61575;49.908;35.556;2022-09-02T06:53:02;2.90;;;1.10;;
73337;SDS011;61575;49.908;35.556;2022-09-02T06:56:09;5.15;;;1.10;;
73337;SDS011;61575;49.908;35.556;2022-09-02T06:59:13;5.80;;;1.60;;
73337;SDS011;61575;49.908;35.556;2022-09-02T07:02:19;3.30;;;1.20;;
73337;SDS011;61575;49.908;35.556;2022-09-02T07:05:22;3.33;;;1.40;;
73337;SDS011;61575;49.908;35.556;2022-09-02T07:08:25;5.57;;;2.35;;
73337;SDS011;61575;49.908;35.556;2022-09-02T07:11:27;3.83;;;1.80;;
73337;SDS011;61575;49.908;35.556;2022-09-02T07:14:30;14.25;;;2.30;;
73337;SDS011;61575;49.908;35.556;2022-09-02T07:17:37;5.40;;;1.90;;
73337;SDS011;61575;49.908;35.556;2022-09-02T07:20:46;5.57;;;1.83;;
73337;SDS011;61575;49.908;35.556;2022-09-02T07:23:52;5.93;;;1.92;;
73337;SDS011;61575;49.908;35.556;2022-09-02T07:26:55;4.03;;;1.42;;
73337;SDS011;61575;49.908;35.556;2022-09-02T07:29:58;9.82;;;2.50;;
73337;SDS011;61575;49.908;35.556;2022-09-02T07:33:04;8.55;;;2.00;;
73337;SDS011;61575;49.908;35.556;2022-09-02T07:36:08;4.30;;;1.42;;
73337;SDS011;61575;49.908;35.556;2022-09-02T07:39:16;3.38;;;1.20;;
73337;SDS011;61575;49.908;35.556;2022-09-02T07:42:20;7.55;;;1.42;;
73337;SDS011;61575;49.908;35.556;2022-09-02T07:45:23;16.00;;;2.20;;
73337;SDS011;61575;49.908;35.556;2022-09-02T07:48:25;5.97;;;1.50;;
73337;SDS011;61575;49.908;35.556;2022-09-02T07:51:29;3.58;;;1.10;;
73337;SDS011;61575;49.908;35.556;2022-09-02T07:54:33;23.80;;;2.67;;
73337;SDS011;61575;49.908;35.556;2022-09-02T07:57:37;3.63;;;1.50;;
73337;SDS011;61575;49.908;35.556;2022-09-02T08:00:42;5.10;;;1.38;;
73337;SDS011;61575;49.908;35.556;2022-09-02T08:03:45;2.97;;;1.30;;
73337;SDS011;61575;49.908;35.556;2022-09-02T08:06:47;6.25;;;2.08;;
73337;SDS011;61575;49.908;35.556;2022-09-02T08:09:51;6.90;;;1.70;;
73337;SDS011;61575;49.908;35.556;2022-09-02T08:15:55;5.03;;;1.60;;
73337;SDS011;61575;49.908;35.556;2022-09-02T08:18:57;3.63;;;1.63;;
73337;SDS011;61575;49.908;35.556;2022-09-02T08:22:03;5.07;;;1.60;;
73337;SDS011;61575;49.908;35.556;2022-09-02T08:25:06;3.08;;;1.00;;
73337;SDS011;61575;49.908;35.556;2022-09-02T08:28:09;27.75;;;3.72;;
73337;SDS011;61575;49.908;35.556;2022-09-02T08:31:12;5.00;;;1.50;;
73337;SDS011;61575;49.908;35.556;2022-09-02T08:34:14;4.43;;;1.40;;
73337;SDS011;61575;49.908;35.556;2022-09-02T08:37:17;3.22;;;1.35;;
73337;SDS011;61575;49.908;35.556;2022-09-02T08:40:20;5.60;;;1.40;;
73337;SDS011;61575;49.908;35.556;2022-09-02T08:46:40;3.00;;;1.60;;
73337;SDS011;61575;49.908;35.556;2022-09-02T08:49:45;6.03;;;1.40;;
73337;SDS011;61575;49.908;35.556;2022-09-02T08:56:15;7.88;;;1.73;;
73337;SDS011;61575;49.908;35.556;2022-09-02T08:59:22;3.40;;;1.10;;
73337;SDS011;61575;49.908;35.556;2022-09-02T09:06:04;3.90;;;1.00;;
73337;SDS011;61575;49.908;35.556;2022-09-02T09:09:43;3.63;;;1.35;;
73337;SDS011;61575;49.908;35.556;2022-09-02T09:19:52;8.05;;;1.65;;
73337;SDS011;61575;49.908;35.556;2022-09-02T09:22:57;4.78;;;1.23;;
73337;SDS011;61575;49.908;35.556;2022-09-02T09:29:09;4.32;;;1.27;;
73337;SDS011;61575;49.908;35.556;2022-09-02T09:35:45;4.90;;;1.35;;
73337;SDS011;61575;49.908;35.556;2022-09-02T09:38:50;7.20;;;1.60;;
73337;SDS011;61575;49.908;35.556;2022-09-02T09:41:56;6.22;;;1.42;;
73337;SDS011;61575;49.908;35.556;2022-09-02T09:45:25;9.13;;;1.48;;
73337;SDS011;61575;49.908;35.556;2022-09-02T09:48:28;9.27;;;1.48;;
73337;SDS011;61575;49.908;35.556;2022-09-02T09:51:30;4.68;;;1.38;;
73337;SDS011;61575;49.908;35.556;2022-09-02T09:58:13;2.58;;;0.90;;
73337;SDS011;61575;49.908;35.556;2022-09-02T10:01:31;5.65;;;1.27;;
73337;SDS011;61575;49.908;35.556;2022-09-02T10:04:34;2.80;;;1.05;;
73337;SDS011;61575;49.908;35.556;2022-09-02T10:07:51;2.50;;;0.98;;
73337;SDS011;61575;49.908;35.556;2022-09-02T10:11:18;19.13;;;2.33;;
73337;SDS011;61575;49.908;35.556;2022-09-02T10:17:39;2.97;;;1.00;;
73337;SDS011;61575;49.908;35.556;2022-09-02T10:21:29;5.43;;;1.10;;
73337;SDS011;61575;49.908;35.556;2022-09-02T10:31:36;6.18;;;1.17;;
73337;SDS011;61575;49.908;35.556;2022-09-02T10:41:45;3.35;;;1.10;;
73337;SDS011;61575;49.908;35.556;2022-09-02T10:58:29;4.40;;;1.20;;
73337;SDS011;61575;49.908;35.556;2022-09-02T11:05:02;6.68;;;1.10;;
73337;SDS011;61575;49.908;35.556;2022-09-02T11:08:20;6.97;;;1.30;;
73337;SDS011;61575;49.908;35.556;2022-09-02T11:11:56;5.43;;;1.23;;
73337;SDS011;61575;49.908;35.556;2022-09-02T11:18:24;4.35;;;1.20;;
73337;SDS011;61575;49.908;35.556;2022-09-02T11:24:47;29.08;;;21.65;;
73337;SDS011;61575;49.908;35.556;2022-09-02T11:31:21;3.05;;;1.13;;
73337;SDS011;61575;49.908;35.556;2022-09-02T11:34:46;5.85;;;1.50;;
73337;SDS011;61575;49.908;35.556;2022-09-02T11:37:56;4.27;;;1.13;;
73337;SDS011;61575;49.908;35.556;2022-09-02T11:51:21;3.38;;;1.15;;
73337;SDS011;61575;49.908;35.556;2022-09-02T11:54:47;3.20;;;1.00;;
73337;SDS011;61575;49.908;35.556;2022-09-02T11:58:07;22.38;;;14.13;;
73337;SDS011;61575;49.908;35.556;2022-09-02T12:05:31;3.92;;;1.80;;
73337;SDS011;61575;49.908;35.556;2022-09-02T12:11:38;5.15;;;1.30;;
73337;SDS011;61575;49.908;35.556;2022-09-02T12:27:06;2.90;;;1.05;;
73337;SDS011;61575;49.908;35.556;2022-09-02T12:30:10;2.47;;;1.10;;
73337;SDS011;61575;49.908;35.556;2022-09-02T12:33:14;2.63;;;1.10;;
73337;SDS011;61575;49.908;35.556;2022-09-02T12:39:46;5.85;;;1.20;;
73337;SDS011;61575;49.908;35.556;2022-09-02T12:42:55;1.40;;;0.70;;
73337;SDS011;61575;49.908;35.556;2022-09-02T12:46:25;2.38;;;1.00;;
73337;SDS011;61575;49.908;35.556;2022-09-02T12:49:42;3.47;;;1.10;;
73337;SDS011;61575;49.908;35.556;2022-09-02T12:52:47;3.75;;;0.90;;
73337;SDS011;61575;49.908;35.556;2022-09-02T12:55:59;3.60;;;1.00;;
73337;SDS011;61575;49.908;35.556;2022-09-02T12:59:36;23.95;;;2.70;;
73337;SDS011;61575;49.908;35.556;2022-09-02T13:16:32;2.05;;;0.90;;
73337;SDS011;61575;49.908;35.556;2022-09-02T13:26:53;6.68;;;1.10;;
73337;SDS011;61575;49.908;35.556;2022-09-02T13:33:33;4.90;;;1.10;;
73337;SDS011;61575;49.908;35.556;2022-09-02T13:36:43;3.03;;;0.90;;
73337;SDS011;61575;49.908;35.556;2022-09-02T13:39:47;3.78;;;1.20;;
73337;SDS011;61575;49.908;35.556;2022-09-02T13:42:50;3.15;;;1.20;;
73337;SDS011;61575;49.908;35.556;2022-09-02T13:45:58;3.20;;;0.93;;
73337;SDS011;61575;49.908;35.556;2022-09-02T13:49:02;5.13;;;1.30;;
73337;SDS011;61575;49.908;35.556;2022-09-02T13:52:04;3.95;;;1.20;;
73337;SDS011;61575;49.908;35.556;2022-09-02T13:55:17;2.80;;;1.10;;
73337;SDS011;61575;49.908;35.556;2022-09-02T13:58:31;9.15;;;1.63;;
73337;SDS011;61575;49.908;35.556;2022-09-02T14:01:36;2.60;;;1.02;;
73337;SDS011;61575;49.908;35.556;2022-09-02T14:04:40;2.90;;;1.13;;
73337;SDS011;61575;49.908;35.556;2022-09-02T14:10:49;2.90;;;1.10;;
73337;SDS011;61575;49.908;35.556;2022-09-02T14:13:54;4.35;;;1.50;;
73337;SDS011;61575;49.908;35.556;2022-09-02T14:20:21;4.43;;;1.30;;
73337;SDS011;61575;49.908;35.556;2022-09-02T14:26:37;2.53;;;1.00;;
73337;SDS011;61575;49.908;35.556;2022-09-02T14:29:44;4.03;;;0.93;;
73337;SDS011;61575;49.908;35.556;2022-09-02T14:32:49;4.78;;;1.40;;
73337;SDS011;61575;49.908;35.556;2022-09-02T14:39:24;7.88;;;1.52;;
73337;SDS011;61575;49.908;35.556;2022-09-02T14:45:31;5.15;;;1.30;;
73337;SDS011;61575;49.908;35.556;2022-09-02T14:48:37;4.50;;;1.27;;
73337;SDS011;61575;49.908;35.556;2022-09-02T14:51:43;4.00;;;1.20;;
73337;SDS011;61575;49.908;35.556;2022-09-02T14:54:48;14.40;;;4.95;;
73337;SDS011;61575;49.908;35.556;2022-09-02T14:58:02;14.00;;;2.83;;
73337;SDS011;61575;49.908;35.556;2022-09-02T15:01:05;7.22;;;4.68;;
73337;SDS011;61575;49.908;35.556;2022-09-02T15:04:09;5.75;;;1.40;;
73337;SDS011;61575;49.908;35.556;2022-09-02T15:07:14;7.60;;;4.35;;
73337;SDS011;61575;49.908;35.556;2022-09-02T15:10:17;5.85;;;2.88;;
73337;SDS011;61575;49.908;35.556;2022-09-02T15:16:33;3.90;;;1.65;;
73337;SDS011;61575;49.908;35.556;2022-09-02T15:19:34;4.82;;;1.35;;
73337;SDS011;61575;49.908;35.556;2022-09-02T15:22:37;43.33;;;4.55;;
73337;SDS011;61575;49.908;35.556;2022-09-02T15:25:39;7.75;;;1.50;;
73337;SDS011;61575;49.908;35.556;2022-09-02T15:28:41;9.90;;;1.95;;
73337;SDS011;61575;49.908;35.556;2022-09-02T15:31:44;32.33;;;3.75;;
73337;SDS011;61575;49.908;35.556;2022-09-02T15:34:46;5.47;;;1.40;;
73337;SDS011;61575;49.908;35.556;2022-09-02T15:37:48;13.30;;;1.70;;
73337;SDS011;61575;49.908;35.556;2022-09-02T15:43:53;7.03;;;1.77;;
73337;SDS011;61575;49.908;35.556;2022-09-02T15:46:55;13.13;;;2.35;;
73337;SDS011;61575;49.908;35.556;2022-09-02T15:49:57;9.45;;;1.77;;
73337;SDS011;61575;49.908;35.556;2022-09-02T15:52:59;31.73;;;3.55;;
73337;SDS011;61575;49.908;35.556;2022-09-02T15:56:02;6.38;;;1.20;;
73337;SDS011;61575;49.908;35.556;2022-09-02T15:59:10;6.30;;;1.30;;
73337;SDS011;61575;49.908;35.556;2022-09-02T16:02:14;61.17;;;5.70;;
73337;SDS011;61575;49.908;35.556;2022-09-02T16:05:16;18.30;;;3.40;;
73337;SDS011;61575;49.908;35.556;2022-09-02T16:08:19;24.42;;;2.90;;
73337;SDS011;61575;49.908;35.556;2022-09-02T16:11:21;11.98;;;2.05;;
73337;SDS011;61575;49.908;35.556;2022-09-02T16:14:24;169.05;;;11.82;;
73337;SDS011;61575;49.908;35.556;2022-09-02T16:20:29;91.53;;;7.88;;
73337;SDS011;61575;49.908;35.556;2022-09-02T16:23:31;63.65;;;4.80;;
73337;SDS011;61575;49.908;35.556;2022-09-02T16:26:35;33.05;;;3.38;;
73337;SDS011;61575;49.908;35.556;2022-09-02T16:29:39;19.38;;;2.88;;
73337;SDS011;61575;49.908;35.556;2022-09-02T16:32:42;11.68;;;2.30;;
73337;SDS011;61575;49.908;35.556;2022-09-02T16:35:44;10.35;;;1.83;;
73337;SDS011;61575;49.908;35.556;2022-09-02T16:38:46;11.50;;;2.25;;
73337;SDS011;61575;49.908;35.556;2022-09-02T16:41:49;9.82;;;1.90;;
73337;SDS011;61575;49.908;35.556;2022-09-02T16:44:53;87.53;;;8.27;;
73337;SDS011;61575;49.908;35.556;2022-09-02T16:47:55;70.68;;;6.65;;
73337;SDS011;61575;49.908;35.556;2022-09-02T16:51:02;50.03;;;5.65;;
73337;SDS011;61575;49.908;35.556;2022-09-02T16:54:05;37.20;;;3.80;;
73337;SDS011;61575;49.908;35.556;2022-09-02T16:57:08;70.30;;;8.35;;
73337;SDS011;61575;49.908;35.556;2022-09-02T17:03:12;108.73;;;9.73;;
73337;SDS011;61575;49.908;35.556;2022-09-02T17:06:15;87.93;;;7.93;;
73337;SDS011;61575;49.908;35.556;2022-09-02T17:12:20;64.18;;;5.55;;
73337;SDS011;61575;49.908;35.556;2022-09-02T17:15:23;42.55;;;4.25;;
73337;SDS011;61575;49.908;35.556;2022-09-02T17:18:26;14.60;;;2.63;;
73337;SDS011;61575;49.908;35.556;2022-09-02T17:21:41;29.95;;;4.53;;
73337;SDS011;61575;49.908;35.556;2022-09-02T17:24:51;22.35;;;4.28;;
73337;SDS011;61575;49.908;35.556;2022-09-02T17:27:54;10.73;;;2.70;;
73337;SDS011;61575;49.908;35.556;2022-09-02T17:30:56;10.75;;;2.83;;
73337;SDS011;61575;49.908;35.556;2022-09-02T17:34:00;9.75;;;2.60;;
73337;SDS011;61575;49.908;35.556;2022-09-02T17:37:04;9.75;;;2.40;;
73337;SDS011;61575;49.908;35.556;2022-09-02T17:40:07;12.23;;;2.90;;
73337;SDS011;61575;49.908;35.556;2022-09-02T17:43:33;15.00;;;3.72;;
73337;SDS011;61575;49.908;35.556;2022-09-02T17:46:38;12.18;;;3.97;;
73337;SDS011;61575;49.908;35.556;2022-09-02T17:52:45;10.95;;;4.93;;
73337;SDS011;61575;49.908;35.556;2022-09-02T17:55:47;13.30;;;5.25;;
73337;SDS011;61575;49.908;35.556;2022-09-02T18:05:29;12.68;;;6.20;;
73337;SDS011;61575;49.908;35.556;2022-09-02T18:12:03;14.30;;;6.93;;
73337;SDS011;61575;49.908;35.556;2022-09-02T18:15:12;16.63;;;6.45;;
73337;SDS011;61575;49.908;35.556;2022-09-02T18:18:19;12.38;;;6.65;;
73337;SDS011;61575;49.908;35.556;2022-09-02T18:21:28;32.03;;;6.90;;
73337;SDS011;61575;49.908;35.556;2022-09-02T18:25:28;47.65;;;8.88;;
73337;SDS011;61575;49.908;35.556;2022-09-02T18:28:44;15.88;;;5.32;;
73337;SDS011;61575;49.908;35.556;2022-09-02T18:48:33;52.00;;;6.68;;
73337;SDS011;61575;49.908;35.556;2022-09-02T18:51:37;91.85;;;9.80;;
73337;SDS011;61575;49.908;35.556;2022-09-02T18:54:44;29.00;;;5.32;;
73337;SDS011;61575;49.908;35.556;2022-09-02T18:57:53;21.52;;;3.90;;
73337;SDS011;61575;49.908;35.556;2022-09-02T19:01:02;24.77;;;4.30;;
73337;SDS011;61575;49.908;35.556;2022-09-02T19:04:10;70.95;;;8.15;;
73337;SDS011;61575;49.908;35.556;2022-09-02T19:07:14;32.88;;;5.70;;
73337;SDS011;61575;49.908;35.556;2022-09-02T19:10:38;20.02;;;4.45;;
73337;SDS011;61575;49.908;35.556;2022-09-02T19:13:50;13.65;;;4.10;;
73337;SDS011;61575;49.908;35.556;2022-09-02T19:16:54;9.57;;;3.15;;
73337;SDS011;61575;49.908;35.556;2022-09-02T19:20:01;6.55;;;2.65;;
73337;SDS011;61575;49.908;35.556;2022-09-02T19:23:10;6.00;;;2.38;;
73337;SDS011;61575;49.908;35.556;2022-09-02T19:26:14;7.57;;;2.22;;
73337;SDS011;61575;49.908;35.556;2022-09-02T19:29:20;6.40;;;2.08;;
73337;SDS011;61575;49.908;35.556;2022-09-02T19:32:29;7.00;;;2.13;;
73337;SDS011;61575;49.908;35.556;2022-09-02T19:35:34;6.90;;;2.15;;
73337;SDS011;61575;49.908;35.556;2022-09-02T19:38:39;5.70;;;1.98;;
73337;SDS011;61575;49.908;35.556;2022-09-02T19:41:42;4.47;;;1.90;;
73337;SDS011;61575;49.908;35.556;2022-09-02T19:44:44;5.55;;;1.73;;
73337;SDS011;61575;49.908;35.556;2022-09-02T19:47:47;6.13;;;2.17;;
73337;SDS011;61575;49.908;35.556;2022-09-02T19:51:08;7.10;;;2.20;;
73337;SDS011;61575;49.908;35.556;2022-09-02T19:54:13;6.65;;;2.10;;
73337;SDS011;61575;49.908;35.556;2022-09-02T19:57:19;5.70;;;2.10;;
73337;SDS011;61575;49.908;35.556;2022-09-02T20:00:21;6.65;;;2.33;;
73337;SDS011;61575;49.908;35.556;2022-09-02T20:03:23;6.32;;;1.90;;
73337;SDS011;61575;49.908;35.556;2022-09-02T20:06:25;6.75;;;2.20;;
73337;SDS011;61575;49.908;35.556;2022-09-02T20:09:27;3.42;;;1.65;;
73337;SDS011;61575;49.908;35.556;2022-09-02T20:12:30;6.07;;;1.90;;
73337;SDS011;61575;49.908;35.556;2022-09-02T20:15:38;5.82;;;2.00;;
73337;SDS011;61575;49.908;35.556;2022-09-02T20:18:40;3.70;;;1.60;;
73337;SDS011;61575;49.908;35.556;2022-09-02T20:21:46;4.50;;;1.65;;
73337;SDS011;61575;49.908;35.556;2022-09-02T20:24:49;3.90;;;1.70;;
73337;SDS011;61575;49.908;35.556;2022-09-02T20:27:55;6.45;;;1.95;;
73337;SDS011;61575;49.908;35.556;2022-09-02T20:31:52;4.38;;;1.85;;
73337;SDS011;61575;49.908;35.556;2022-09-02T20:35:00;4.97;;;1.90;;
73337;SDS011;61575;49.908;35.556;2022-09-02T20:55:10;3.63;;;1.42;;
73337;SDS011;61575;49.908;35.556;2022-09-02T21:01:44;3.95;;;2.00;;
73337;SDS011;61575;49.908;35.556;2022-09-02T21:04:51;4.85;;;1.70;;
73337;SDS011;61575;49.908;35.556;2022-09-02T21:08:00;4.53;;;1.50;;
73337;SDS011;61575;49.908;35.556;2022-09-02T21:11:06;15.75;;;2.22;;
73337;SDS011;61575;49.908;35.556;2022-09-02T21:14:16;7.55;;;1.90;;
73337;SDS011;61575;49.908;35.556;2022-09-02T21:17:35;4.60;;;1.75;;
73337;SDS011;61575;49.908;35.556;2022-09-02T21:27:56;3.95;;;1.58;;
73337;SDS011;61575;49.908;35.556;2022-09-02T21:31:12;4.65;;;1.58;;
73337;SDS011;61575;49.908;35.556;2022-09-02T21:34:27;4.95;;;1.63;;
73337;SDS011;61575;49.908;35.556;2022-09-02T21:37:36;4.95;;;1.63;;
73337;SDS011;61575;49.908;35.556;2022-09-02T21:40:43;4.15;;;1.70;;
73337;SDS011;61575;49.908;35.556;2022-09-02T21:44:39;6.32;;;1.63;;
73337;SDS011;61575;49.908;35.556;2022-09-02T21:47:45;7.03;;;2.00;;
73337;SDS011;61575;49.908;35.556;2022-09-02T21:51:14;4.47;;;1.60;;
73337;SDS011;61575;49.908;35.556;2022-09-02T21:54:32;4.45;;;1.90;;
73337;SDS011;61575;49.908;35.556;2022-09-02T22:01:18;4.50;;;1.83;;
73337;SDS011;61575;49.908;35.556;2022-09-02T22:05:00;4.00;;;1.60;;
73337;SDS011;61575;49.908;35.556;2022-09-02T22:08:04;5.45;;;1.70;;
73337;SDS011;61575;49.908;35.556;2022-09-02T22:17:49;7.63;;;1.70;;
73337;SDS011;61575;49.908;35.556;2022-09-02T22:20:56;6.53;;;1.90;;
73337;SDS011;61575;49.908;35.556;2022-09-02T22:24:02;5.72;;;1.60;;
73337;SDS011;61575;49.908;35.556;2022-09-02T22:30:11;5.07;;;1.67;;
73337;SDS011;61575;49.908;35.556;2022-09-02T22:33:15;4.10;;;1.90;;
73337;SDS011;61575;49.908;35.556;2022-09-02T22:36:24;5.35;;;1.90;;
73337;SDS011;61575;49.908;35.556;2022-09-02T22:42:51;4.32;;;1.52;;
73337;SDS011;61575;49.908;35.556;2022-09-02T22:46:02;5.60;;;1.88;;
73337;SDS011;61575;49.908;35.556;2022-09-02T22:49:55;5.93;;;1.98;;
73337;SDS011;61575;49.908;35.556;2022-09-02T22:53:19;5.22;;;1.70;;